createdAt,value
2024-03-05T00:00:29.150Z,9.80
2024-03-05T00:01:29.201Z,9.80
2024-03-05T00:02:29.099Z,9.78
2024-03-05T00:03:29.183Z,9.78
2024-03-05T00:04:29.105Z,9.78
2024-03-05T00:05:29.071Z,9.77
2024-03-05T00:06:29.083Z,9.73
2024-03-05T00:07:29.062Z,9.73
2024-03-05T00:08:29.060Z,9.70
2024-03-05T00:09:29.024Z,9.70
2024-03-05T00:10:29.092Z,9.69
2024-03-05T00:11:29.086Z,9.67
2024-03-05T00:12:28.987Z,9.67
2024-03-05T00:13:29.059Z,9.67
2024-03-05T00:14:28.970Z,9.66
2024-03-05T00:15:28.989Z,9.65
2024-03-05T00:16:29.056Z,9.63
2024-03-05T00:17:28.965Z,9.62
2024-03-05T00:18:28.958Z,9.60
2024-03-05T00:19:28.973Z,9.62
2024-03-05T00:20:28.925Z,9.62
2024-03-05T00:21:28.906Z,9.59
2024-03-05T00:22:28.937Z,9.60
2024-03-05T00:23:28.897Z,9.63
2024-03-05T00:24:28.891Z,9.63
2024-03-05T00:25:28.888Z,9.63
2024-03-05T00:26:28.843Z,9.63
2024-03-05T00:27:28.857Z,9.65
2024-03-05T00:28:28.877Z,9.65
2024-03-05T00:29:28.856Z,9.63
2024-03-05T00:30:28.815Z,9.65
2024-03-05T00:31:28.813Z,9.65
2024-03-05T00:32:28.798Z,9.65
2024-03-05T00:33:28.784Z,9.65
2024-03-05T00:34:28.809Z,9.66
2024-03-05T00:35:28.754Z,9.66
2024-03-05T00:36:28.758Z,9.65
2024-03-05T00:37:28.778Z,9.66
2024-03-05T00:38:33.625Z,9.65
2024-03-05T00:39:28.719Z,9.66
2024-03-05T00:40:28.742Z,9.65
2024-03-05T00:41:28.706Z,9.63
2024-03-05T00:42:28.703Z,9.65
2024-03-05T00:43:28.740Z,9.62
2024-03-05T00:44:28.663Z,9.60
2024-03-05T00:45:28.650Z,9.55
2024-03-05T00:46:28.671Z,9.54
2024-03-05T00:47:28.684Z,9.52
2024-03-05T00:48:28.615Z,9.52
2024-03-05T00:49:28.716Z,9.50
2024-03-05T00:50:28.605Z,9.51
2024-03-05T00:51:28.602Z,9.47
2024-03-05T00:52:28.663Z,9.45
2024-03-05T00:53:28.595Z,9.42
2024-03-05T00:54:28.546Z,9.41
2024-03-05T00:55:28.641Z,9.36
2024-03-05T00:56:28.526Z,9.34
2024-03-05T00:57:28.666Z,9.32
2024-03-05T00:58:28.554Z,9.32
2024-03-05T00:59:28.534Z,9.29
2024-03-05T01:00:28.479Z,9.26
2024-03-05T01:01:28.709Z,9.23
2024-03-05T01:02:28.561Z,9.19
2024-03-05T01:03:28.479Z,9.18
2024-03-05T01:04:28.479Z,9.18
2024-03-05T01:05:28.475Z,9.15
2024-03-05T01:06:28.470Z,9.14
2024-03-05T01:07:28.543Z,9.12
2024-03-05T01:08:28.480Z,9.09
2024-03-05T01:09:28.454Z,9.09
2024-03-05T01:10:28.429Z,9.08
2024-03-05T01:11:28.475Z,9.08
2024-03-05T01:12:28.366Z,9.04
2024-03-05T01:13:28.471Z,9.04
2024-03-05T01:14:28.336Z,9.03
2024-03-05T01:15:28.455Z,9.04
2024-03-05T01:16:28.401Z,9.03
2024-03-05T01:17:28.372Z,9.03
2024-03-05T01:18:28.313Z,9.03
2024-03-05T01:19:28.296Z,9.03
2024-03-05T01:20:28.269Z,8.99
2024-03-05T01:21:28.294Z,8.96
2024-03-05T01:22:28.340Z,8.96
2024-03-05T01:23:28.250Z,8.95
2024-03-05T01:24:28.253Z,8.95
2024-03-05T01:25:28.243Z,8.90
2024-03-05T01:26:28.222Z,8.90
2024-03-05T01:27:28.250Z,8.89
2024-03-05T01:28:28.321Z,8.86
2024-03-05T01:29:28.181Z,8.83
2024-03-05T02:50:12.805Z,8.20
2024-03-05T02:51:13.582Z,8.19
2024-03-05T02:52:13.593Z,8.17
2024-03-05T02:53:13.544Z,8.19
2024-03-05T02:54:13.561Z,8.19
2024-03-05T02:55:13.617Z,8.16
2024-03-05T02:56:13.522Z,8.14
2024-03-05T02:57:13.522Z,8.16
2024-03-05T02:58:13.533Z,8.14
2024-03-05T02:59:13.494Z,8.10
2024-03-05T03:00:13.504Z,8.12
2024-03-05T03:01:13.606Z,8.10
2024-03-05T03:02:13.489Z,8.12
2024-03-05T03:03:13.452Z,8.10
2024-03-05T03:04:13.508Z,8.09
2024-03-05T03:05:13.428Z,8.06
2024-03-05T03:06:13.432Z,8.06
2024-03-05T03:07:13.462Z,8.04
2024-03-05T03:08:13.442Z,8.04
2024-03-05T03:09:13.376Z,8.02
2024-03-05T03:10:13.504Z,7.99
2024-03-05T03:11:13.431Z,8.01
2024-03-05T03:12:13.354Z,7.99
2024-03-05T03:13:13.378Z,7.98
2024-03-05T03:14:13.348Z,7.98
2024-03-05T03:15:13.339Z,7.96
2024-03-05T03:16:13.298Z,7.98
2024-03-05T03:17:13.317Z,7.99
2024-03-05T03:18:13.387Z,7.99
2024-03-05T03:19:13.698Z,7.98
2024-03-05T03:20:13.274Z,7.96
2024-03-05T03:21:13.261Z,7.98
2024-03-05T03:22:13.325Z,7.96
2024-03-05T03:23:13.254Z,7.98
2024-03-05T03:24:13.218Z,7.96
2024-03-05T03:25:13.304Z,7.94
2024-03-05T03:26:13.280Z,7.96
2024-03-05T03:27:13.181Z,7.92
2024-03-05T03:28:13.237Z,7.92
2024-03-05T03:29:13.178Z,7.94
2024-03-05T03:30:13.216Z,7.87
2024-03-05T03:31:13.231Z,7.84
2024-03-05T03:32:13.140Z,7.84
2024-03-05T03:33:13.186Z,7.80
2024-03-05T03:34:13.162Z,7.81
2024-03-05T03:35:13.112Z,7.78
2024-03-05T03:36:13.180Z,7.76
2024-03-05T03:37:13.105Z,7.74
2024-03-05T03:38:13.076Z,7.74
2024-03-05T03:39:13.075Z,7.73
2024-03-05T03:40:13.196Z,7.69
2024-03-05T03:41:13.052Z,7.69
2024-03-05T03:42:13.060Z,7.69
2024-03-05T03:43:13.073Z,7.68
2024-03-05T03:44:13.023Z,7.61
2024-03-05T03:45:13.017Z,7.62
2024-03-05T03:46:13.034Z,7.61
2024-03-05T03:47:13.037Z,7.58
2024-03-05T03:48:13.009Z,7.54
2024-03-05T03:49:12.966Z,7.52
2024-03-05T03:50:12.972Z,7.49
2024-03-05T03:51:12.948Z,7.46
2024-03-05T03:52:12.940Z,7.43
2024-03-05T03:53:12.944Z,7.42
2024-03-05T03:54:12.941Z,7.39
2024-03-05T03:55:12.943Z,7.34
2024-03-05T03:56:12.894Z,7.31
2024-03-05T03:57:12.894Z,7.24
2024-03-05T03:58:12.908Z,7.21
2024-03-05T03:59:12.879Z,7.15
2024-03-05T04:00:12.839Z,7.13
2024-03-05T04:01:12.881Z,7.10
2024-03-05T04:02:12.846Z,7.10
2024-03-05T04:03:12.855Z,7.10
2024-03-05T04:04:12.825Z,7.07
2024-03-05T04:05:12.817Z,7.03
2024-03-05T04:06:12.825Z,7.01
2024-03-05T04:07:12.786Z,6.96
2024-03-05T04:08:12.820Z,6.93
2024-03-05T04:09:12.749Z,6.93
2024-03-05T04:10:12.794Z,6.93
2024-03-05T04:11:12.855Z,6.92
2024-03-05T04:12:12.731Z,6.91
2024-03-05T04:13:12.725Z,6.88
2024-03-05T04:14:12.706Z,6.85
2024-03-05T04:15:12.698Z,6.82
2024-03-05T04:16:12.741Z,6.79
2024-03-05T04:17:12.673Z,6.78
2024-03-05T04:18:12.770Z,6.71
2024-03-05T04:19:12.668Z,6.73
2024-03-05T04:20:12.656Z,6.73
2024-03-05T04:21:12.650Z,6.71
2024-03-05T04:22:12.639Z,6.70
2024-03-05T04:23:12.621Z,6.68
2024-03-05T04:24:12.608Z,6.65
2024-03-05T04:25:12.596Z,6.65
2024-03-05T04:26:12.612Z,6.64
2024-03-05T04:27:12.568Z,6.64
2024-03-05T04:28:12.587Z,6.65
2024-03-05T04:29:12.555Z,6.63
2024-03-05T04:30:12.545Z,6.65
2024-03-05T04:31:12.523Z,6.64
2024-03-05T04:32:12.532Z,6.57
2024-03-05T04:33:12.639Z,6.57
2024-03-05T04:34:12.486Z,6.56
2024-03-05T04:35:12.618Z,6.61
2024-03-05T04:36:12.465Z,6.56
2024-03-05T04:37:12.480Z,6.57
2024-03-05T04:38:12.455Z,6.56
2024-03-05T04:39:12.463Z,6.56
2024-03-05T04:40:12.453Z,6.53
2024-03-05T04:41:12.428Z,6.56
2024-03-05T04:42:12.477Z,6.55
2024-03-05T04:43:12.457Z,6.56
2024-03-05T04:44:12.387Z,6.55
2024-03-05T04:45:12.382Z,6.55
2024-03-05T04:46:12.381Z,6.56
2024-03-05T04:47:12.353Z,6.53
2024-03-05T04:48:12.419Z,6.57
2024-03-05T04:51:40.583Z,6.53
2024-03-05T04:52:41.548Z,6.53
2024-03-05T04:53:41.556Z,6.47
2024-03-05T04:54:41.507Z,6.47
2024-03-05T04:55:41.527Z,6.45
2024-03-05T04:56:41.578Z,6.45
2024-03-05T04:57:41.469Z,6.46
2024-03-05T04:58:41.497Z,6.45
2024-03-05T04:59:41.443Z,6.42
2024-03-05T05:00:41.505Z,6.37
2024-03-05T05:01:41.650Z,6.42
2024-03-05T05:02:41.448Z,6.38
2024-03-05T05:03:41.420Z,6.40
2024-03-05T05:04:41.446Z,6.37
2024-03-05T05:05:41.422Z,6.34
2024-03-05T05:06:41.394Z,6.35
2024-03-05T05:07:41.416Z,6.32
2024-03-05T05:08:41.361Z,6.30
2024-03-05T05:09:41.375Z,6.27
2024-03-05T05:10:41.405Z,6.27
2024-03-05T05:11:41.370Z,6.28
2024-03-05T05:12:41.328Z,6.27
2024-03-05T05:13:42.972Z,6.28
2024-03-05T05:14:41.269Z,6.27
2024-03-05T05:15:41.223Z,6.25
2024-03-05T05:16:41.293Z,6.24
2024-03-05T05:17:41.282Z,6.24
2024-03-05T05:18:41.209Z,6.19
2024-03-05T05:19:41.260Z,6.19
2024-03-05T05:20:41.221Z,6.21
2024-03-05T05:21:41.170Z,6.18
2024-03-05T05:22:41.294Z,6.13
2024-03-05T05:23:41.206Z,6.15
2024-03-05T05:24:41.159Z,6.12
2024-03-05T05:25:41.133Z,6.12
2024-03-05T05:26:41.115Z,6.12
2024-03-05T05:27:41.089Z,6.11
2024-03-05T05:28:41.129Z,6.08
2024-03-05T05:29:42.745Z,6.08
2024-03-05T05:30:41.079Z,6.06
2024-03-05T05:31:41.082Z,6.02
2024-03-05T05:32:41.504Z,6.02
2024-03-05T05:33:41.057Z,6.03
2024-03-05T05:34:41.098Z,6.02
2024-03-05T05:35:41.024Z,5.97
2024-03-05T05:36:41.027Z,5.95
2024-03-05T05:37:41.029Z,5.97
2024-03-05T05:38:41.032Z,5.97
2024-03-05T05:39:40.959Z,5.97
2024-03-05T05:40:41.098Z,5.95
2024-03-05T05:41:40.983Z,5.97
2024-03-05T05:42:40.931Z,5.98
2024-03-05T05:43:40.970Z,6.00
2024-03-05T05:44:40.928Z,6.02
2024-03-05T05:45:40.916Z,6.00
2024-03-05T05:46:41.061Z,6.02
2024-03-05T05:47:40.974Z,6.02
2024-03-05T05:48:40.993Z,6.02
2024-03-05T05:49:40.896Z,6.00
2024-03-05T05:50:40.901Z,6.02
2024-03-05T05:51:40.840Z,6.02
2024-03-05T05:52:40.876Z,6.03
2024-03-05T05:53:40.829Z,6.03
2024-03-05T05:54:40.835Z,6.00
2024-03-05T05:55:40.827Z,6.02
2024-03-05T05:56:40.811Z,6.00
2024-03-05T05:57:40.791Z,6.00
2024-03-05T05:58:40.807Z,6.00
2024-03-05T05:59:40.759Z,6.02
2024-03-05T06:00:40.836Z,6.02
2024-03-05T06:01:40.808Z,6.02
2024-03-05T06:02:40.738Z,6.00
2024-03-05T06:03:40.723Z,5.98
2024-03-05T06:04:40.723Z,5.98
2024-03-05T06:05:40.726Z,6.00
2024-03-05T06:06:40.727Z,6.02
2024-03-05T06:07:41.550Z,6.00
2024-03-05T06:08:40.691Z,6.03
2024-03-05T06:09:40.688Z,6.02
2024-03-05T06:10:40.903Z,6.02
2024-03-05T06:11:40.818Z,6.02
2024-03-05T06:12:40.636Z,6.03
2024-03-05T06:13:40.656Z,6.00
2024-03-05T06:14:40.622Z,6.00
2024-03-05T06:15:40.600Z,6.02
2024-03-05T06:16:40.589Z,6.00
2024-03-05T06:17:40.623Z,5.98
2024-03-05T06:18:40.625Z,6.00
2024-03-05T06:19:40.651Z,6.00
2024-03-05T06:20:40.543Z,6.02
2024-03-05T06:21:40.548Z,6.03
2024-03-05T06:22:40.553Z,6.05
2024-03-05T06:23:40.524Z,6.00
2024-03-05T06:24:40.617Z,5.98
2024-03-05T06:25:40.511Z,6.02
2024-03-05T06:26:40.490Z,6.00
2024-03-05T06:27:40.467Z,6.02
2024-03-05T06:28:40.477Z,5.98
2024-03-05T06:29:40.459Z,5.94
2024-03-05T06:30:40.454Z,5.88
2024-03-05T06:31:40.489Z,5.85
2024-03-05T06:32:40.467Z,5.85
2024-03-05T06:33:40.487Z,5.84
2024-03-05T06:34:40.426Z,5.82
2024-03-05T06:35:40.407Z,5.80
2024-03-05T06:36:40.412Z,5.76
2024-03-05T06:37:40.392Z,5.79
2024-03-05T06:38:40.351Z,5.76
2024-03-05T06:39:40.343Z,5.69
2024-03-05T06:40:40.454Z,5.62
2024-03-05T06:41:40.337Z,5.59
2024-03-05T06:42:40.341Z,5.55
2024-03-05T06:43:40.346Z,5.57
2024-03-05T06:44:40.336Z,5.52
2024-03-05T06:45:40.292Z,5.50
2024-03-05T06:46:40.304Z,5.44
2024-03-05T06:47:40.349Z,5.43
2024-03-05T06:48:40.302Z,5.41
2024-03-05T06:49:40.262Z,5.43
2024-03-05T06:50:40.294Z,5.44
2024-03-05T06:51:40.227Z,5.43
2024-03-05T06:52:40.227Z,5.43
2024-03-05T06:53:40.205Z,5.44
2024-03-05T06:54:40.174Z,5.47
2024-03-05T06:55:40.219Z,5.47
2024-03-05T06:56:40.183Z,5.51
2024-03-05T06:57:40.160Z,5.58
2024-03-05T06:58:40.225Z,5.58
2024-03-05T06:59:40.164Z,5.61
2024-03-05T07:00:41.859Z,5.59
2024-03-05T07:01:40.353Z,5.58
2024-03-05T07:02:40.117Z,5.59
2024-03-05T07:03:40.120Z,5.58
2024-03-05T07:04:40.234Z,5.61
2024-03-05T07:05:40.063Z,5.62
2024-03-05T07:06:40.069Z,5.67
2024-03-05T07:07:40.171Z,5.65
2024-03-05T07:08:40.040Z,5.61
2024-03-05T07:09:40.047Z,5.59
2024-03-05T07:10:40.247Z,5.62
2024-03-05T07:11:40.079Z,5.62
2024-03-05T07:14:41.453Z,5.72
2024-03-05T07:15:42.454Z,5.75
2024-03-05T07:16:42.484Z,5.75
2024-03-05T07:17:42.428Z,5.72
2024-03-05T07:18:42.393Z,5.73
2024-03-05T07:19:42.391Z,5.79
2024-03-05T07:20:42.403Z,5.80
2024-03-05T07:21:42.383Z,5.79
2024-03-05T07:22:42.391Z,5.79
2024-03-05T07:23:42.338Z,5.80
2024-03-05T07:24:42.375Z,5.79
2024-03-05T07:25:42.341Z,5.75
2024-03-05T07:26:49.769Z,5.73
2024-03-05T07:27:42.279Z,5.70
2024-03-05T07:28:42.349Z,5.69
2024-03-05T07:29:42.263Z,5.76
2024-03-05T07:30:43.039Z,5.77
2024-03-05T07:31:42.326Z,5.82
2024-03-05T07:32:42.240Z,5.84
2024-03-05T07:33:42.239Z,5.82
2024-03-05T07:34:42.278Z,5.79
2024-03-05T07:35:42.214Z,5.79
2024-03-05T07:36:42.244Z,5.77
2024-03-05T07:37:42.207Z,5.84
2024-03-05T07:38:42.189Z,5.87
2024-03-05T07:39:42.160Z,5.91
2024-03-05T07:40:42.186Z,5.95
2024-03-05T07:41:42.156Z,5.93
2024-03-05T07:42:42.223Z,5.87
2024-03-05T07:43:42.139Z,5.80
2024-03-05T07:44:42.114Z,5.82
2024-03-05T07:45:42.137Z,5.84
2024-03-05T07:46:42.094Z,5.82
2024-03-05T07:47:42.086Z,5.80
2024-03-05T07:48:42.082Z,5.79
2024-03-05T07:49:42.078Z,5.76
2024-03-05T07:50:42.056Z,5.75
2024-03-05T07:51:45.352Z,5.79
2024-03-05T07:52:42.049Z,5.82
2024-03-05T07:53:42.781Z,5.80
2024-03-05T07:54:42.019Z,5.80
2024-03-05T07:55:46.604Z,5.77
2024-03-05T07:56:42.027Z,5.76
2024-03-05T07:57:42.002Z,5.77
2024-03-05T07:58:42.263Z,5.80
2024-03-05T08:02:31.685Z,5.94
2024-03-05T08:03:32.607Z,5.95
2024-03-05T08:04:32.643Z,5.94
2024-03-05T08:05:32.723Z,5.88
2024-03-05T08:06:32.697Z,5.91
2024-03-05T08:07:32.683Z,5.93
2024-03-05T08:08:32.569Z,5.93
2024-03-05T08:09:32.637Z,5.97
2024-03-05T08:10:32.667Z,6.00
2024-03-05T08:11:32.769Z,6.05
2024-03-05T08:12:32.661Z,6.05
2024-03-05T08:13:32.634Z,6.06
2024-03-05T08:14:32.500Z,6.12
2024-03-05T08:15:32.470Z,6.12
2024-03-05T08:16:32.525Z,6.15
2024-03-05T08:17:32.497Z,6.25
2024-03-05T08:18:32.447Z,6.34
2024-03-05T08:19:34.056Z,6.34
2024-03-05T08:20:32.432Z,6.37
2024-03-05T08:21:32.434Z,6.32
2024-03-05T08:22:32.488Z,6.18
2024-03-05T08:23:32.398Z,6.24
2024-03-05T08:24:32.365Z,6.28
2024-03-05T08:25:32.417Z,6.31
2024-03-05T08:26:32.362Z,6.34
2024-03-05T08:27:32.372Z,6.42
2024-03-05T08:28:32.397Z,6.55
2024-03-05T08:29:32.336Z,6.63
2024-03-05T08:30:32.348Z,6.70
2024-03-05T08:31:32.322Z,6.65
2024-03-05T08:32:32.315Z,6.53
2024-03-05T08:33:32.309Z,6.55
2024-03-05T08:34:32.314Z,6.53
2024-03-05T08:35:32.364Z,6.61
2024-03-05T08:36:32.275Z,6.68
2024-03-05T08:37:32.302Z,6.74
2024-03-05T08:38:32.268Z,6.78
2024-03-05T08:39:32.261Z,6.73
2024-03-05T08:40:32.236Z,6.65
2024-03-05T08:41:32.262Z,6.68
2024-03-05T08:42:32.202Z,6.75
2024-03-05T08:43:32.217Z,6.70
2024-03-05T08:44:32.228Z,6.70
2024-03-05T08:45:32.389Z,6.75
2024-03-05T08:46:32.196Z,6.85
2024-03-05T08:47:32.252Z,6.89
2024-03-05T08:48:32.152Z,6.96
2024-03-05T08:49:32.115Z,6.93
2024-03-05T08:50:32.154Z,6.93
2024-03-05T08:51:32.149Z,7.03
2024-03-05T08:52:32.090Z,7.04
2024-03-05T08:53:32.072Z,7.06
2024-03-05T08:54:32.060Z,7.04
2024-03-05T08:55:32.155Z,7.00
2024-03-05T08:56:32.024Z,6.96
2024-03-05T08:57:32.006Z,6.92
2024-03-05T08:58:32.093Z,7.03
2024-03-05T08:59:32.064Z,7.06
2024-03-05T09:00:41.240Z,7.06
2024-03-05T09:01:32.058Z,7.04
2024-03-05T09:02:32.085Z,7.10
2024-03-05T09:03:32.043Z,7.19
2024-03-05T09:04:32.119Z,7.26
2024-03-05T09:05:32.050Z,7.25
2024-03-05T09:06:31.964Z,7.25
2024-03-05T09:07:32.045Z,7.29
2024-03-05T09:08:31.893Z,7.36
2024-03-05T09:09:31.884Z,7.37
2024-03-05T09:10:31.900Z,7.46
2024-03-05T09:11:31.904Z,7.50
2024-03-05T09:12:31.843Z,7.43
2024-03-05T09:13:31.874Z,7.42
2024-03-05T09:14:31.822Z,7.26
2024-03-05T09:15:31.895Z,7.13
2024-03-05T09:16:31.832Z,7.16
2024-03-05T09:17:31.803Z,7.21
2024-03-05T09:18:31.783Z,7.25
2024-03-05T09:19:31.806Z,7.34
2024-03-05T09:20:31.772Z,7.34
2024-03-05T09:21:31.835Z,7.36
2024-03-05T09:22:31.776Z,7.37
2024-03-05T09:23:31.754Z,7.42
2024-03-05T09:24:31.727Z,7.42
2024-03-05T09:25:31.758Z,7.44
2024-03-05T09:26:31.711Z,7.49
2024-03-05T09:27:31.672Z,7.61
2024-03-05T09:28:31.722Z,7.50
2024-03-05T09:29:31.785Z,7.54
2024-03-05T09:30:31.699Z,7.52
2024-03-05T09:31:31.662Z,7.52
2024-03-05T09:32:31.662Z,7.55
2024-03-05T09:33:31.721Z,7.66
2024-03-05T09:34:31.677Z,7.74
2024-03-05T09:35:31.744Z,7.73
2024-03-05T09:36:34.380Z,7.73
2024-03-05T09:37:31.617Z,7.71
2024-03-05T09:38:31.594Z,7.71
2024-03-05T09:39:31.603Z,7.78
2024-03-05T09:40:31.667Z,7.81
2024-03-05T09:41:31.577Z,7.84
2024-03-05T09:42:31.538Z,7.81
2024-03-05T09:43:31.560Z,7.74
2024-03-05T09:44:31.486Z,7.78
2024-03-05T09:45:31.522Z,7.88
2024-03-05T09:46:31.534Z,7.94
2024-03-05T09:47:31.478Z,7.84
2024-03-05T09:48:31.514Z,7.88
2024-03-05T09:49:31.497Z,7.76
2024-03-05T09:50:31.503Z,7.73
2024-03-05T09:51:31.434Z,7.80
2024-03-05T09:52:31.543Z,7.88
2024-03-05T09:53:31.459Z,8.02
2024-03-05T09:54:31.454Z,8.05
2024-03-05T09:55:33.278Z,8.05
2024-03-05T09:56:34.667Z,8.02
2024-03-05T09:57:31.370Z,8.17
2024-03-05T09:58:31.418Z,8.12
2024-03-05T09:59:31.344Z,8.26
2024-03-05T10:00:31.361Z,8.31
2024-03-05T10:01:31.361Z,8.24
2024-03-05T10:02:31.350Z,8.19
2024-03-05T10:03:31.344Z,8.31
2024-03-05T10:04:31.326Z,8.35
2024-03-05T10:05:31.380Z,8.44
2024-03-05T10:06:31.313Z,8.49
2024-03-05T10:07:31.320Z,8.46
2024-03-05T10:08:31.241Z,8.35
2024-03-05T10:09:31.258Z,8.29
2024-03-05T10:10:31.299Z,8.37
2024-03-05T10:11:31.282Z,8.49
2024-03-05T10:12:31.204Z,8.53
2024-03-05T10:13:31.235Z,8.55
2024-03-05T10:14:31.183Z,8.50
2024-03-05T10:15:31.228Z,8.53
2024-03-05T10:16:31.171Z,8.68
2024-03-05T10:17:31.151Z,8.74
2024-03-05T10:18:31.142Z,8.77
2024-03-05T10:19:31.155Z,8.88
2024-03-05T10:20:31.158Z,8.92
2024-03-05T10:21:31.136Z,8.63
2024-03-05T10:22:31.167Z,8.60
2024-03-05T10:23:31.133Z,8.74
2024-03-05T10:24:31.134Z,8.99
2024-03-05T10:25:31.216Z,9.22
2024-03-05T10:26:31.085Z,9.45
2024-03-05T10:27:31.087Z,9.44
2024-03-05T10:28:31.131Z,9.14
2024-03-05T10:29:31.067Z,9.03
2024-03-05T10:30:32.857Z,9.14
2024-03-05T10:31:31.061Z,9.14
2024-03-05T10:32:31.008Z,9.01
2024-03-05T10:33:31.062Z,8.85
2024-03-05T10:34:31.047Z,8.93
2024-03-05T10:35:31.046Z,9.14
2024-03-05T10:36:30.987Z,9.29
2024-03-05T10:37:31.032Z,9.30
2024-03-05T10:38:31.051Z,9.40
2024-03-05T10:39:30.926Z,9.47
2024-03-05T10:40:30.950Z,9.51
2024-03-05T10:41:39.196Z,9.26
2024-03-05T10:42:30.892Z,9.27
2024-03-05T10:43:30.943Z,9.15
2024-03-05T10:44:30.873Z,9.04
2024-03-05T10:45:30.869Z,9.04
2024-03-05T10:46:30.880Z,8.96
2024-03-05T10:47:30.875Z,8.95
2024-03-05T10:48:30.838Z,9.12
2024-03-05T10:49:30.845Z,9.14
2024-03-05T10:50:30.793Z,8.96
2024-03-05T10:51:30.824Z,9.06
2024-03-05T10:52:30.823Z,8.99
2024-03-05T10:53:30.789Z,8.95
2024-03-05T10:54:30.790Z,8.96
2024-03-05T10:55:30.772Z,8.89
2024-03-05T10:56:37.262Z,8.80
2024-03-05T10:57:30.751Z,8.68
2024-03-05T10:58:30.737Z,8.70
2024-03-05T10:59:30.742Z,8.65
2024-03-05T11:00:30.712Z,8.52
2024-03-05T11:01:30.758Z,8.47
2024-03-05T11:02:30.739Z,8.55
2024-03-05T11:03:30.659Z,8.56
2024-03-05T11:04:30.696Z,8.60
2024-03-05T11:05:30.682Z,8.56
2024-03-05T11:06:30.653Z,8.56
2024-03-05T11:07:30.653Z,8.49
2024-03-05T11:08:30.654Z,8.60
2024-03-05T11:09:30.617Z,8.74
2024-03-05T11:10:30.629Z,8.78
2024-03-05T11:11:30.689Z,8.90
2024-03-05T11:12:30.568Z,8.81
2024-03-05T11:13:30.601Z,8.81
2024-03-05T11:14:30.570Z,8.80
2024-03-05T11:17:35.075Z,9.23
2024-03-05T11:18:36.014Z,9.09
2024-03-05T11:19:36.097Z,8.98
2024-03-05T11:20:35.982Z,8.99
2024-03-05T11:21:36.038Z,9.19
2024-03-05T11:22:35.983Z,9.16
2024-03-05T11:23:35.990Z,9.14
2024-03-05T11:24:35.951Z,9.37
2024-03-05T11:25:42.627Z,9.52
2024-03-05T11:26:35.988Z,9.54
2024-03-05T11:27:35.937Z,9.55
2024-03-05T11:28:35.911Z,9.42
2024-03-05T11:29:35.907Z,9.42
2024-03-05T11:30:35.918Z,9.32
2024-03-05T11:31:35.869Z,9.34
2024-03-05T11:32:36.063Z,9.42
2024-03-05T11:33:35.835Z,9.41
2024-03-05T11:34:35.886Z,9.29
2024-03-05T11:35:35.820Z,9.34
2024-03-05T11:36:35.833Z,9.27
2024-03-05T11:37:35.840Z,9.24
2024-03-05T11:38:35.941Z,9.18
2024-03-05T11:39:35.762Z,9.19
2024-03-05T11:40:35.851Z,9.24
2024-03-05T11:41:35.802Z,9.16
2024-03-05T11:42:35.740Z,9.22
2024-03-05T11:43:35.744Z,9.11
2024-03-05T11:44:35.771Z,9.01
2024-03-05T11:45:35.779Z,9.03
2024-03-05T11:46:35.834Z,9.08
2024-03-05T11:47:35.783Z,9.09
2024-03-05T11:48:35.699Z,9.03
2024-03-05T11:49:35.738Z,9.18
2024-03-05T11:50:35.659Z,9.27
2024-03-05T11:51:35.697Z,9.45
2024-03-05T11:52:35.691Z,9.65
2024-03-05T11:53:35.645Z,9.70
2024-03-05T11:54:35.654Z,9.80
2024-03-05T11:55:35.685Z,9.73
2024-03-05T11:56:35.622Z,9.60
2024-03-05T11:57:35.651Z,9.51
2024-03-05T11:58:35.585Z,9.41
2024-03-05T11:59:35.645Z,9.30
2024-03-05T12:00:35.566Z,9.41
2024-03-05T12:01:35.619Z,9.60
2024-03-05T12:02:35.606Z,9.73
2024-03-05T12:03:35.509Z,9.98
2024-03-05T12:04:35.568Z,10.20
2024-03-05T12:05:35.539Z,10.35
2024-03-05T12:06:35.497Z,10.31
2024-03-05T12:07:35.504Z,10.35
2024-03-05T12:08:35.493Z,10.39
2024-03-05T12:09:35.444Z,10.52
2024-03-05T12:10:35.506Z,10.61
2024-03-05T12:11:35.546Z,10.57
2024-03-05T12:12:35.459Z,10.42
2024-03-05T12:13:35.470Z,10.52
2024-03-05T12:14:35.428Z,10.49
2024-03-05T12:15:35.398Z,10.36
2024-03-05T12:16:35.479Z,10.27
2024-03-05T12:17:35.437Z,10.17
2024-03-05T12:18:35.358Z,10.16
2024-03-05T12:19:35.357Z,10.20
2024-03-05T12:20:35.383Z,10.18
2024-03-05T12:21:35.333Z,10.36
2024-03-05T12:22:35.342Z,10.27
2024-03-05T12:23:41.712Z,10.01
2024-03-05T12:24:35.362Z,9.91
2024-03-05T12:25:35.297Z,9.72
2024-03-05T12:26:35.312Z,9.60
2024-03-05T12:27:35.270Z,9.73
2024-03-05T12:28:35.368Z,9.87
2024-03-05T12:29:35.343Z,9.91
2024-03-05T12:30:35.227Z,9.83
2024-03-05T12:31:35.250Z,9.70
2024-03-05T12:32:35.299Z,9.55
2024-03-05T12:33:35.202Z,9.55
2024-03-05T12:34:35.303Z,9.62
2024-03-05T12:35:35.176Z,9.66
2024-03-05T12:36:35.153Z,9.72
2024-03-05T12:37:35.195Z,9.75
2024-03-05T12:38:35.201Z,9.69
2024-03-05T12:39:35.127Z,9.63
2024-03-05T12:40:35.161Z,9.62
2024-03-05T12:41:35.117Z,9.51
2024-03-05T12:42:35.115Z,9.47
2024-03-05T12:43:35.133Z,9.47
2024-03-05T12:44:35.091Z,9.50
2024-03-05T12:45:35.089Z,9.57
2024-03-05T12:46:35.061Z,9.72
2024-03-05T12:47:35.137Z,9.87
2024-03-05T12:48:35.029Z,9.90
2024-03-05T12:49:35.037Z,10.01
2024-03-05T12:50:35.040Z,10.16
2024-03-05T12:51:35.017Z,10.27
2024-03-05T12:52:35.044Z,10.36
2024-03-05T12:53:35.004Z,10.24
2024-03-05T12:54:34.971Z,10.28
2024-03-05T12:55:34.990Z,10.43
2024-03-05T12:56:34.963Z,10.58
2024-03-05T12:57:35.013Z,10.39
2024-03-05T12:58:34.977Z,10.45
2024-03-05T12:59:34.939Z,10.58
2024-03-05T13:00:34.915Z,10.65
2024-03-05T13:01:34.965Z,10.49
2024-03-05T13:02:34.918Z,10.43
2024-03-05T13:03:34.885Z,10.46
2024-03-05T13:04:35.011Z,10.60
2024-03-05T13:05:34.917Z,10.58
2024-03-05T13:06:34.865Z,10.23
2024-03-05T13:07:34.875Z,9.91
2024-03-05T13:08:34.842Z,9.83
2024-03-05T13:09:34.810Z,9.73
2024-03-05T13:10:34.865Z,9.60
2024-03-05T13:11:34.871Z,9.48
2024-03-05T13:12:35.046Z,9.50
2024-03-05T13:13:34.809Z,9.45
2024-03-05T13:14:34.767Z,9.32
2024-03-05T13:15:34.771Z,9.16
2024-03-05T13:16:34.770Z,9.16
2024-03-05T13:17:34.825Z,9.24
2024-03-05T13:18:34.728Z,9.18
2024-03-05T13:19:34.805Z,9.22
2024-03-05T13:20:34.763Z,9.23
2024-03-05T13:21:34.696Z,9.18
2024-03-05T13:22:34.750Z,9.19
2024-03-05T13:23:34.659Z,9.19
2024-03-05T13:24:34.654Z,9.14
2024-03-05T13:25:34.673Z,9.15
2024-03-05T13:26:34.654Z,9.27
2024-03-05T13:27:34.662Z,9.27
2024-03-05T13:28:34.641Z,9.29
2024-03-05T13:29:34.629Z,9.33
2024-03-05T13:30:34.604Z,9.47
2024-03-05T13:31:34.637Z,9.63
2024-03-05T13:32:34.597Z,9.80
2024-03-05T13:33:34.556Z,9.81
2024-03-05T13:34:34.608Z,9.93
2024-03-05T13:35:34.565Z,10.05
2024-03-05T13:36:34.525Z,10.06
2024-03-05T13:37:34.533Z,10.16
2024-03-05T13:38:34.538Z,10.17
2024-03-05T13:39:34.495Z,10.21
2024-03-05T13:40:34.729Z,10.30
2024-03-05T13:41:34.456Z,10.39
2024-03-05T13:42:34.476Z,10.41
2024-03-05T13:43:34.448Z,10.35
2024-03-05T13:44:34.451Z,10.28
2024-03-05T13:45:34.427Z,10.21
2024-03-05T13:46:34.620Z,10.30
2024-03-05T13:47:34.507Z,10.17
2024-03-05T13:48:34.746Z,10.01
2024-03-05T13:49:34.412Z,9.93
2024-03-05T13:50:34.399Z,10.14
2024-03-05T13:51:34.626Z,10.30
2024-03-05T13:52:34.426Z,10.31
2024-03-05T13:53:34.344Z,10.35
2024-03-05T13:54:34.350Z,10.38
2024-03-05T13:55:34.433Z,10.23
2024-03-05T13:56:34.353Z,10.24
2024-03-05T13:57:34.292Z,10.18
2024-03-05T13:58:34.319Z,9.96
2024-03-05T13:59:34.325Z,9.72
2024-03-05T14:00:34.273Z,9.66
2024-03-05T14:01:34.357Z,9.65
2024-03-05T14:02:34.275Z,9.62
2024-03-05T14:03:34.271Z,9.60
2024-03-05T14:04:34.315Z,9.62
2024-03-05T14:05:34.216Z,9.62
2024-03-05T14:06:34.257Z,9.63
2024-03-05T14:07:34.293Z,9.54
2024-03-05T14:08:34.192Z,9.54
2024-03-05T14:09:34.179Z,9.59
2024-03-05T14:10:34.184Z,9.60
2024-03-05T14:11:34.245Z,9.57
2024-03-05T14:12:36.388Z,9.51
2024-03-05T14:13:34.291Z,9.51
2024-03-05T14:14:34.124Z,9.40
2024-03-05T14:15:34.168Z,9.34
2024-03-05T14:16:34.152Z,9.42
2024-03-05T14:17:34.142Z,9.51
2024-03-05T14:18:34.090Z,9.55
2024-03-05T14:19:34.128Z,9.63
2024-03-05T14:20:34.067Z,9.67
2024-03-05T14:21:34.064Z,9.65
2024-03-05T14:22:36.076Z,9.62
2024-03-05T14:23:34.049Z,9.59
2024-03-05T14:24:34.007Z,9.55
2024-03-05T14:25:34.093Z,9.65
2024-03-05T14:26:34.016Z,9.66
2024-03-05T14:27:34.040Z,9.69
2024-03-05T14:28:34.112Z,9.60
2024-03-05T14:29:34.001Z,9.47
2024-03-05T14:30:33.954Z,9.50
2024-03-05T14:31:41.672Z,9.40
2024-03-05T14:32:34.023Z,9.18
2024-03-05T14:33:34.023Z,9.23
2024-03-05T14:34:34.075Z,9.18
2024-03-05T14:35:33.910Z,9.18
2024-03-05T14:36:34.013Z,9.08
2024-03-05T14:37:34.006Z,9.15
2024-03-05T14:38:33.963Z,9.23
2024-03-05T14:39:33.860Z,9.32
2024-03-05T14:40:34.071Z,9.37
2024-03-05T14:41:33.929Z,9.33
2024-03-05T14:42:33.912Z,9.16
2024-03-05T14:43:34.018Z,9.22
2024-03-05T14:44:33.826Z,9.19
2024-03-05T14:45:33.828Z,9.09